Time;durP1;ratioP1;P1;durP2;ratioP2;P2;SDS_P1;SDS_P2;PMS_P1;PMS_P2;Temp;Humidity;BMP_temperature;BMP_pressure;BME280_temperature;BME280_humidity;BME280_pressure;Samples;Min_cycle;Max_cycle;Signal;HPM_P1;HPM_P2
2022/04/11 00:01:47;;;;;;;11.30;6.47;;;5.10;99.90;;;;;;5051797;28;20017;-49
2022/04/11 00:04:12;;;;;;;9.27;6.85;;;5.10;99.90;;;;;;5051790;28;20481;-45
2022/04/11 00:06:38;;;;;;;11.73;6.68;;;5.20;99.90;;;;;;5051771;28;20025;-46
2022/04/11 00:09:03;;;;;;;11.20;7.45;;;5.20;99.90;;;;;;5051474;28;20504;-48
2022/04/11 00:11:29;;;;;;;10.68;5.95;;;5.20;99.90;;;;;;5051755;28;20071;-46
2022/04/11 00:13:55;;;;;;;13.93;6.70;;;5.10;99.90;;;;;;5051657;28;20076;-45
2022/04/11 00:16:20;;;;;;;10.35;6.63;;;5.00;99.90;;;;;;5050859;28;20511;-47
2022/04/11 00:18:45;;;;;;;13.15;6.88;;;5.20;99.90;;;;;;5051393;28;20035;-49
2022/04/11 00:21:11;;;;;;;11.98;6.40;;;5.10;99.90;;;;;;5050229;28;20052;-45
2022/04/11 00:23:36;;;;;;;11.43;6.50;;;5.00;99.90;;;;;;5051453;28;20104;-43
2022/04/11 00:26:02;;;;;;;9.30;7.07;;;4.80;99.90;;;;;;5051501;28;20036;-45
2022/04/11 00:28:28;;;;;;;9.30;6.53;;;4.90;99.90;;;;;;5051027;28;20040;-46
2022/04/11 00:30:53;;;;;;;12.65;6.60;;;4.80;99.90;;;;;;5051267;28;20131;-45
2022/04/11 00:33:19;;;;;;;17.63;6.90;;;4.70;99.90;;;;;;5051245;28;20037;-45
2022/04/11 00:35:46;;;;;;;13.73;7.03;;;4.60;99.90;;;;;;5051321;28;20481;-43
2022/04/11 00:38:12;;;;;;;11.32;6.95;;;4.60;99.90;;;;;;5051148;28;20096;-45
2022/04/11 00:40:37;;;;;;;11.75;7.40;;;4.60;99.90;;;;;;5052062;28;20071;-44
2022/04/11 00:43:03;;;;;;;10.25;6.70;;;4.60;99.90;;;;;;5051689;28;20021;-46
2022/04/11 00:45:28;;;;;;;9.65;6.80;;;4.60;99.90;;;;;;5051532;28;20026;-44
2022/04/11 00:47:54;;;;;;;10.38;6.90;;;4.60;99.90;;;;;;5051103;28;20074;-45
2022/04/11 00:50:19;;;;;;;8.85;6.30;;;4.50;99.90;;;;;;5051330;28;20017;-48
2022/04/11 00:52:50;;;;;;;7.88;6.45;;;4.60;99.90;;;;;;5051192;28;20448;-44
2022/04/11 00:55:20;;;;;;;9.15;6.82;;;4.60;99.90;;;;;;5051036;28;20033;-45
2022/04/11 00:57:46;;;;;;;9.18;7.05;;;4.50;99.90;;;;;;5050907;28;20508;-45
2022/04/11 01:00:13;;;;;;;9.18;6.53;;;4.30;99.90;;;;;;5051139;28;20032;-46
2022/04/11 01:02:39;;;;;;;7.63;6.72;;;4.30;99.90;;;;;;5051120;28;20021;-43
2022/04/11 01:05:08;;;;;;;11.77;7.03;;;4.30;99.90;;;;;;5050889;28;20160;-44
2022/04/11 01:07:39;;;;;;;9.93;7.07;;;4.30;99.90;;;;;;5050877;28;20025;-47
2022/04/11 01:10:06;;;;;;;14.13;8.25;;;4.30;99.90;;;;;;5051012;28;20189;-46
2022/04/11 01:12:32;;;;;;;11.05;7.43;;;4.30;99.90;;;;;;5051124;28;20465;-46
2022/04/11 01:14:58;;;;;;;9.75;7.25;;;4.30;99.90;;;;;;5054608;28;20033;-41
2022/04/11 01:17:34;;;;;;;11.95;7.45;;;4.30;99.90;;;;;;5054598;28;20104;-49
2022/04/11 01:20:10;;;;;;;10.75;6.68;;;4.30;99.90;;;;;;5054660;28;20025;-44
2022/04/11 01:22:36;;;;;;;10.63;6.75;;;4.30;99.90;;;;;;5054680;28;20035;-46
2022/04/11 01:25:03;;;;;;;13.65;7.60;;;4.40;99.90;;;;;;5054586;28;20455;-47
2022/04/11 01:27:30;;;;;;;10.68;6.50;;;4.50;99.90;;;;;;5054384;28;20037;-50
2022/04/11 01:29:55;;;;;;;9.68;7.35;;;4.50;99.90;;;;;;5054523;28;20025;-45
2022/04/11 01:32:21;;;;;;;12.60;8.02;;;4.50;99.90;;;;;;5054479;28;20036;-48
2022/04/11 01:34:46;;;;;;;12.93;7.25;;;4.50;99.90;;;;;;5054327;28;20029;-46
2022/04/11 01:37:12;;;;;;;9.07;6.93;;;4.60;99.90;;;;;;5054194;28;20079;-45
2022/04/11 01:39:37;;;;;;;9.82;7.35;;;4.70;99.90;;;;;;5054421;28;20024;-47
2022/04/11 01:42:03;;;;;;;14.75;8.25;;;4.80;99.90;;;;;;5054394;28;20029;-46
2022/04/11 01:44:29;;;;;;;12.15;7.40;;;5.00;99.90;;;;;;5054352;28;20032;-48
2022/04/11 01:46:54;;;;;;;11.68;7.47;;;4.90;99.90;;;;;;5053963;28;20499;-47
2022/04/11 01:49:20;;;;;;;10.13;6.63;;;4.80;99.90;;;;;;5036355;28;20036;-50
2022/04/11 01:51:45;;;;;;;9.20;6.78;;;4.60;99.90;;;;;;5054086;28;20064;-42
2022/04/11 01:54:11;;;;;;;10.70;7.13;;;4.50;99.90;;;;;;5054325;28;20123;-45
2022/04/11 01:56:37;;;;;;;10.63;6.75;;;4.30;99.90;;;;;;5054092;28;20113;-49
2022/04/11 01:59:02;;;;;;;12.02;7.15;;;4.30;99.90;;;;;;5054026;28;20025;-49
2022/04/11 02:01:28;;;;;;;12.70;7.97;;;4.10;99.90;;;;;;5053798;28;20025;-46
2022/04/11 02:03:53;;;;;;;10.63;6.75;;;3.90;99.90;;;;;;5053958;28;20017;-40
2022/04/11 02:06:19;;;;;;;9.00;6.65;;;3.80;99.90;;;;;;5052714;28;20068;-48
2022/04/11 02:08:44;;;;;;;8.55;6.35;;;3.80;99.90;;;;;;5053893;28;20025;-45
2022/04/11 02:11:11;;;;;;;7.63;6.68;;;3.70;99.90;;;;;;5054263;28;20037;-49
2022/04/11 02:13:36;;;;;;;8.95;5.93;;;3.80;99.90;;;;;;5053724;28;20036;-48
2022/04/11 02:16:02;;;;;;;9.60;6.97;;;3.80;99.90;;;;;;5052411;28;20477;-40
2022/04/11 02:18:28;;;;;;;8.52;7.05;;;3.70;99.90;;;;;;5053437;28;20029;-45
2022/04/11 02:20:53;;;;;;;12.45;6.15;;;3.70;99.90;;;;;;5053610;28;20032;-49
2022/04/11 02:23:19;;;;;;;9.90;6.10;;;3.70;99.90;;;;;;5053671;28;20060;-40
2022/04/11 02:25:44;;;;;;;15.93;6.85;;;3.70;99.90;;;;;;5052351;28;20023;-45
2022/04/11 02:28:10;;;;;;;7.25;6.35;;;3.60;99.90;;;;;;5053427;28;20017;-45
2022/04/11 02:30:36;;;;;;;9.70;6.28;;;3.50;99.90;;;;;;5053511;28;20373;-52
2022/04/11 02:33:01;;;;;;;9.02;7.00;;;3.50;99.90;;;;;;5053489;28;20512;-43
2022/04/11 02:35:27;;;;;;;8.93;6.70;;;3.40;99.90;;;;;;5053497;28;20029;-41
2022/04/11 02:37:53;;;;;;;8.13;6.50;;;3.40;99.90;;;;;;5053127;28;20018;-45
2022/04/11 02:40:19;;;;;;;10.27;6.95;;;3.40;99.90;;;;;;5053498;28;20025;-50
2022/04/11 02:42:45;;;;;;;11.00;6.97;;;3.50;99.90;;;;;;5053711;28;20104;-47
2022/04/11 02:45:12;;;;;;;8.77;7.35;;;3.50;99.90;;;;;;5053471;28;20032;-43
2022/04/11 02:47:38;;;;;;;9.32;7.05;;;3.50;99.90;;;;;;5053083;28;20041;-46
2022/04/11 02:50:04;;;;;;;13.88;7.60;;;3.50;99.90;;;;;;5053408;28;20029;-44
2022/04/11 02:52:30;;;;;;;10.32;6.82;;;3.50;99.90;;;;;;5053295;28;20404;-45
2022/04/11 02:54:56;;;;;;;13.27;6.57;;;3.50;99.90;;;;;;5053182;28;20025;-45
2022/04/11 02:57:23;;;;;;;9.77;7.20;;;3.50;99.90;;;;;;5052907;28;20028;-46
2022/04/11 02:59:49;;;;;;;10.73;6.47;;;3.60;99.90;;;;;;5053280;28;20025;-46
2022/04/11 03:02:14;;;;;;;9.52;6.50;;;3.60;99.90;;;;;;5052991;28;20021;-40
2022/04/11 03:04:40;;;;;;;8.27;6.00;;;3.60;99.90;;;;;;5052086;28;20040;-45
2022/04/11 03:07:06;;;;;;;11.38;7.45;;;3.70;99.90;;;;;;5053145;28;20048;-49
2022/04/11 03:09:32;;;;;;;9.63;6.97;;;3.60;99.90;;;;;;5053979;28;20032;-45
2022/04/11 03:11:57;;;;;;;13.82;6.45;;;3.60;99.90;;;;;;5053403;28;20151;-45
2022/04/11 03:14:23;;;;;;;13.65;8.13;;;3.70;99.90;;;;;;5054149;28;20033;-45
2022/04/11 03:16:49;;;;;;;15.30;7.40;;;3.80;99.90;;;;;;5054161;28;20021;-43
2022/04/11 03:19:15;;;;;;;10.55;8.18;;;3.70;99.90;;;;;;5054311;28;20052;-44
2022/04/11 03:21:40;;;;;;;8.85;7.00;;;3.80;99.90;;;;;;5052746;28;20033;-43
2022/04/11 03:24:06;;;;;;;9.93;7.10;;;3.80;99.90;;;;;;5052346;28;20071;-47
2022/04/11 03:26:32;;;;;;;14.00;7.85;;;3.80;99.90;;;;;;5052753;28;20029;-45
2022/04/11 03:28:57;;;;;;;11.48;7.00;;;3.80;99.90;;;;;;5052073;28;20062;-47
2022/04/11 03:31:23;;;;;;;14.45;7.35;;;3.80;99.90;;;;;;5052152;28;20025;-45
2022/04/11 03:33:48;;;;;;;15.52;7.57;;;3.80;99.90;;;;;;5052196;28;20381;-42
2022/04/11 03:36:14;;;;;;;9.20;7.50;;;3.80;99.90;;;;;;5051872;28;20021;-47
2022/04/11 03:38:39;;;;;;;8.65;7.28;;;3.80;99.90;;;;;;5051797;28;20025;-46
2022/04/11 03:41:05;;;;;;;14.63;7.85;;;3.80;99.90;;;;;;5052162;28;20029;-46
2022/04/11 03:43:30;;;;;;;11.40;7.75;;;3.80;99.90;;;;;;5052014;28;20409;-44
2022/04/11 03:45:56;;;;;;;10.77;6.65;;;3.80;99.90;;;;;;5051944;28;20032;-47
2022/04/11 03:48:22;;;;;;;7.97;6.10;;;3.70;99.90;;;;;;5051776;28;20036;-51
2022/04/11 03:50:47;;;;;;;12.25;7.20;;;3.70;99.90;;;;;;5051861;28;20033;-48
2022/04/11 03:53:14;;;;;;;11.30;6.75;;;3.70;99.90;;;;;;5051973;28;20075;-42
2022/04/11 03:55:40;;;;;;;11.75;6.70;;;3.70;99.90;;;;;;5051652;28;20017;-53
2022/04/11 03:58:05;;;;;;;11.77;6.38;;;3.70;99.90;;;;;;5051656;28;20079;-48
2022/04/11 04:00:31;;;;;;;8.85;7.03;;;3.60;99.90;;;;;;5051953;28;20103;-50
2022/04/11 04:03:06;;;;;;;9.40;6.85;;;3.60;99.90;;;;;;5051916;28;20032;-49
2022/04/11 04:05:32;;;;;;;8.57;6.57;;;3.50;99.90;;;;;;5051589;28;20031;-49
2022/04/11 04:07:57;;;;;;;9.05;6.40;;;3.50;99.90;;;;;;5051672;28;20029;-46
2022/04/11 04:10:26;;;;;;;13.45;7.18;;;3.50;99.90;;;;;;5051822;28;20028;-50
2022/04/11 04:12:58;;;;;;;11.90;7.32;;;3.50;99.90;;;;;;5051803;28;20020;-46
2022/04/11 04:15:23;;;;;;;9.30;7.43;;;3.40;99.90;;;;;;5051418;28;20120;-46
2022/04/11 04:17:52;;;;;;;9.93;7.20;;;3.40;99.90;;;;;;5051501;28;20101;-46
2022/04/11 04:20:18;;;;;;;9.07;7.60;;;3.40;99.90;;;;;;5051574;28;20043;-46
2022/04/11 04:22:43;;;;;;;12.00;6.53;;;3.30;99.90;;;;;;5051439;28;20033;-47
2022/04/11 04:25:09;;;;;;;7.57;6.40;;;3.30;99.90;;;;;;5051693;28;20481;-47
2022/04/11 04:27:35;;;;;;;9.15;7.95;;;3.20;99.90;;;;;;5051429;28;20048;-45
2022/04/11 04:30:00;;;;;;;11.70;7.38;;;3.20;99.90;;;;;;5051925;28;20400;-46
2022/04/11 04:32:27;;;;;;;15.23;7.63;;;3.10;99.90;;;;;;5051633;28;20059;-45
2022/04/11 04:34:52;;;;;;;11.80;8.15;;;3.10;99.90;;;;;;5052114;28;20029;-45
2022/04/11 04:37:18;;;;;;;13.95;8.93;;;3.00;99.90;;;;;;5049968;28;20040;-47
2022/04/11 04:39:43;;;;;;;10.73;7.40;;;3.00;99.90;;;;;;5051752;28;20493;-50
2022/04/11 04:42:09;;;;;;;14.32;6.57;;;2.90;99.90;;;;;;5051977;28;20027;-48
2022/04/11 04:44:40;;;;;;;8.52;6.53;;;2.90;99.90;;;;;;5051525;28;20032;-47
2022/04/11 04:47:08;;;;;;;11.18;6.40;;;2.80;99.90;;;;;;5051146;28;20060;-48
2022/04/11 04:49:33;;;;;;;7.32;6.57;;;2.80;99.90;;;;;;5054978;28;20051;-46
2022/04/11 04:51:59;;;;;;;8.63;7.20;;;2.80;99.90;;;;;;5055533;28;20033;-49
2022/04/11 04:54:24;;;;;;;12.25;8.27;;;2.80;99.90;;;;;;5055401;28;20025;-47
2022/04/11 04:56:50;;;;;;;9.68;7.10;;;2.90;99.90;;;;;;5054129;28;20025;-48
2022/04/11 04:59:16;;;;;;;10.00;7.28;;;2.80;99.90;;;;;;5055194;28;20033;-44
2022/04/11 05:01:41;;;;;;;14.57;7.72;;;2.90;99.90;;;;;;5055380;28;20071;-50
2022/04/11 05:04:07;;;;;;;17.75;7.72;;;2.90;99.90;;;;;;5055104;28;20037;-46
2022/04/11 05:06:33;;;;;;;11.13;7.70;;;2.80;99.90;;;;;;5055266;28;20029;-46
2022/04/11 05:08:59;;;;;;;11.80;7.70;;;2.80;99.90;;;;;;5054757;28;20032;-50
2022/04/11 05:11:25;;;;;;;11.15;7.47;;;2.80;99.90;;;;;;5055458;28;20033;-49
2022/04/11 05:13:50;;;;;;;12.25;7.82;;;2.80;99.90;;;;;;5054811;28;20456;-46
2022/04/11 05:16:18;;;;;;;22.80;8.55;;;2.70;99.90;;;;;;5055021;28;20029;-45
2022/04/11 05:18:44;;;;;;;10.13;7.80;;;2.70;99.90;;;;;;5054568;28;20112;-46
2022/04/11 05:23:41;;;;;;;10.95;8.00;;;2.70;99.90;;;;;;5077874;23;20056;-46
2022/04/11 05:26:07;;;;;;;9.02;7.90;;;2.80;99.90;;;;;;5055101;28;20056;-49
2022/04/11 05:28:33;;;;;;;13.48;7.95;;;2.80;99.90;;;;;;5054283;28;20025;-46
2022/04/11 05:30:59;;;;;;;14.35;8.07;;;2.90;99.90;;;;;;5054886;28;20051;-47
2022/04/11 05:33:25;;;;;;;7.55;6.75;;;3.00;99.90;;;;;;5054235;28;20032;-50
2022/04/11 05:35:50;;;;;;;12.60;7.45;;;3.20;99.90;;;;;;5054398;28;20025;-47
2022/04/11 05:38:16;;;;;;;9.95;7.43;;;3.50;99.90;;;;;;5052855;28;20082;-50
2022/04/11 05:40:43;;;;;;;11.55;7.35;;;3.50;99.90;;;;;;5054499;28;20012;-50
2022/04/11 05:43:09;;;;;;;8.00;7.20;;;3.70;99.90;;;;;;5054153;28;20035;-44
2022/04/11 05:45:35;;;;;;;10.82;7.30;;;3.70;99.90;;;;;;5054370;28;20040;-46
2022/04/11 05:48:01;;;;;;;12.65;7.13;;;3.60;99.90;;;;;;5054009;28;20443;-47
2022/04/11 05:50:27;;;;;;;9.38;7.22;;;3.80;99.90;;;;;;5054149;28;20021;-46
2022/04/11 05:52:52;;;;;;;9.23;7.10;;;3.70;99.90;;;;;;5054170;28;20503;-44
2022/04/11 05:55:18;;;;;;;11.20;6.07;;;4.00;99.90;;;;;;5053897;28;20514;-45
2022/04/11 05:57:44;;;;;;;6.72;6.03;;;4.30;99.90;;;;;;5050638;28;20036;-47
2022/04/11 06:00:11;;;;;;;12.88;7.03;;;4.80;99.90;;;;;;5053333;28;20069;-48
2022/04/11 06:02:36;;;;;;;11.52;6.55;;;5.10;99.90;;;;;;5053870;28;20510;-51
2022/04/11 06:05:02;;;;;;;12.65;5.53;;;5.40;99.90;;;;;;5053664;28;20029;-48
2022/04/11 06:07:32;;;;;;;9.93;6.32;;;5.50;99.90;;;;;;5053430;28;20131;-46
2022/04/11 06:09:58;;;;;;;8.70;5.72;;;5.60;99.90;;;;;;5053879;28;20025;-48
2022/04/11 06:12:25;;;;;;;9.45;6.13;;;5.70;99.90;;;;;;5053869;28;20032;-49
2022/04/11 06:14:53;;;;;;;7.45;5.88;;;5.90;99.90;;;;;;5052477;28;20029;-46
2022/04/11 06:17:23;;;;;;;10.23;6.40;;;5.90;99.90;;;;;;5053690;28;20549;-46
2022/04/11 06:19:58;;;;;;;10.65;6.55;;;5.90;99.90;;;;;;5053802;28;20103;-50
2022/04/11 06:22:24;;;;;;;8.40;6.13;;;6.30;99.90;;;;;;5052770;28;20457;-48
2022/04/11 06:24:50;;;;;;;10.48;6.55;;;7.00;99.90;;;;;;5053265;28;20112;-49
2022/04/11 06:27:17;;;;;;;7.85;5.65;;;7.10;99.90;;;;;;5052798;28;20041;-47
2022/04/11 06:29:43;;;;;;;13.32;5.60;;;6.80;99.90;;;;;;5053060;28;20025;-49
2022/04/11 06:32:09;;;;;;;10.00;6.13;;;7.00;99.90;;;;;;5053305;28;20063;-48
2022/04/11 06:34:36;;;;;;;8.15;5.20;;;7.40;99.90;;;;;;5053142;28;20049;-51
2022/04/11 06:37:02;;;;;;;10.80;6.05;;;7.80;99.90;;;;;;5053109;28;20103;-44
2022/04/11 06:39:28;;;;;;;9.18;5.22;;;8.00;99.90;;;;;;5052149;28;20419;-56
2022/04/11 06:41:54;;;;;;;8.63;5.30;;;8.00;99.90;;;;;;5052631;28;20029;-47
2022/04/11 06:44:19;;;;;;;9.25;5.43;;;8.10;99.90;;;;;;5052879;28;20108;-48
2022/04/11 06:46:45;;;;;;;8.00;5.25;;;8.20;99.90;;;;;;5053125;28;20048;-47
2022/04/11 06:49:11;;;;;;;8.90;5.90;;;8.10;99.90;;;;;;5052933;28;20032;-46
2022/04/11 06:51:37;;;;;;;9.27;5.70;;;7.90;99.90;;;;;;5053272;28;20032;-45
2022/04/11 06:54:02;;;;;;;7.70;5.53;;;7.70;99.90;;;;;;5053183;28;20033;-46
2022/04/11 06:56:28;;;;;;;9.27;6.18;;;7.40;99.90;;;;;;5035216;28;20396;-42
2022/04/11 06:58:53;;;;;;;7.25;4.45;;;7.70;99.90;;;;;;5052977;28;20033;-44
2022/04/11 07:01:19;;;;;;;8.73;6.05;;;8.10;99.90;;;;;;5053967;28;20017;-45
2022/04/11 07:03:45;;;;;;;69.50;40.78;;;8.20;99.90;;;;;;5053051;28;20032;-44
2022/04/11 07:06:11;;;;;;;58.10;30.63;;;8.40;99.90;;;;;;5053517;28;20025;-43
2022/04/11 07:08:37;;;;;;;69.00;35.97;;;8.50;99.90;;;;;;5052871;28;20032;-43
2022/04/11 07:11:04;;;;;;;11.70;5.20;;;8.50;99.90;;;;;;5052572;28;20039;-44
2022/04/11 07:13:30;;;;;;;10.95;5.07;;;8.90;99.90;;;;;;5052876;28;20104;-44
2022/04/11 07:15:56;;;;;;;10.82;4.88;;;9.40;99.90;;;;;;5052937;28;20100;-44
2022/04/11 07:18:25;;;;;;;7.78;5.28;;;9.00;99.90;;;;;;5052514;28;20028;-48
2022/04/11 07:20:51;;;;;;;6.88;5.70;;;9.00;99.90;;;;;;5052926;28;20028;-46
2022/04/11 07:23:17;;;;;;;6.72;4.40;;;9.50;99.90;;;;;;5053106;28;20311;-46
2022/04/11 07:25:42;;;;;;;8.40;4.65;;;9.60;99.90;;;;;;5052816;28;20017;-44
2022/04/11 07:28:08;;;;;;;12.13;4.57;;;9.70;99.80;;;;;;5052472;28;20036;-47
2022/04/11 07:30:34;;;;;;;5.95;4.70;;;9.70;99.90;;;;;;5052518;28;20108;-47
2022/04/11 07:33:00;;;;;;;6.18;4.03;;;10.00;99.60;;;;;;5052582;28;20043;-46
2022/04/11 07:35:25;;;;;;;7.07;4.72;;;10.00;99.30;;;;;;5051994;28;20029;-46
2022/04/11 07:37:51;;;;;;;6.00;4.35;;;10.20;98.90;;;;;;5052272;28;20100;-44
2022/04/11 07:40:17;;;;;;;13.07;5.00;;;10.60;98.60;;;;;;5052031;28;20021;-47
2022/04/11 07:42:42;;;;;;;6.95;4.47;;;10.90;97.90;;;;;;5052148;28;20025;-50
2022/04/11 07:45:08;;;;;;;6.13;4.32;;;11.00;97.40;;;;;;5051888;28;20499;-49
2022/04/11 07:47:34;;;;;;;8.95;3.85;;;11.10;96.90;;;;;;5051524;28;20029;-43
2022/04/11 07:50:00;;;;;;;5.40;4.10;;;11.50;96.50;;;;;;5051745;28;20388;-45
2022/04/11 07:52:26;;;;;;;4.53;3.65;;;11.70;95.80;;;;;;5051808;28;20025;-46
2022/04/11 07:54:52;;;;;;;9.63;3.75;;;12.00;95.50;;;;;;5051196;28;20538;-43
2022/04/11 07:57:18;;;;;;;7.35;3.60;;;12.80;94.10;;;;;;5051858;28;20025;-44
2022/04/11 07:59:43;;;;;;;5.60;4.15;;;13.00;93.50;;;;;;5054513;28;20020;-50
2022/04/11 08:02:09;;;;;;;8.35;3.67;;;13.30;93.50;;;;;;5030554;28;20025;-49
2022/04/11 08:04:35;;;;;;;9.65;3.50;;;14.00;92.20;;;;;;5050696;28;20040;-46
2022/04/11 08:07:02;;;;;;;6.50;3.22;;;14.50;90.70;;;;;;5048783;28;20056;-46
2022/04/11 08:09:28;;;;;;;13.75;4.65;;;15.40;87.40;;;;;;5046505;28;20025;-47
2022/04/11 08:11:53;;;;;;;9.52;3.67;;;15.30;85.80;;;;;;5051651;28;20408;-44
2022/04/11 08:14:19;;;;;;;4.57;2.97;;;15.00;84.90;;;;;;5047620;28;20082;-45
2022/04/11 08:16:44;;;;;;;3.55;2.55;;;14.90;83.10;;;;;;5045286;28;20041;-46
2022/04/11 08:19:10;;;;;;;4.95;3.40;;;14.80;81.90;;;;;;5041773;28;20021;-46
2022/04/11 08:21:37;;;;;;;5.85;2.65;;;15.30;81.80;;;;;;5042228;28;20028;-43
2022/04/11 08:24:03;;;;;;;5.05;2.60;;;15.60;78.90;;;;;;5042563;28;20032;-43
2022/04/11 08:26:28;;;;;;;3.10;2.42;;;16.20;78.10;;;;;;5040940;28;20036;-42
2022/04/11 08:28:54;;;;;;;5.25;3.45;;;16.30;77.30;;;;;;5040764;28;20368;-44
2022/04/11 08:31:20;;;;;;;5.05;3.08;;;16.50;74.60;;;;;;5046261;28;20396;-43
2022/04/11 08:33:46;;;;;;;3.75;2.55;;;16.60;75.00;;;;;;5031956;28;20438;-43
2022/04/11 08:36:11;;;;;;;5.45;2.63;;;16.80;72.10;;;;;;5046893;28;20036;-45
2022/04/11 08:38:37;;;;;;;3.13;1.92;;;16.60;71.20;;;;;;5050206;28;20017;-46
2022/04/11 08:41:03;;;;;;;6.57;2.03;;;16.90;69.00;;;;;;5051557;28;20092;-47
2022/04/11 08:43:30;;;;;;;5.00;2.45;;;17.40;68.10;;;;;;5040583;28;20108;-49
2022/04/11 08:46:01;;;;;;;3.33;2.47;;;17.50;68.60;;;;;;5048345;28;20039;-48
2022/04/11 08:48:26;;;;;;;6.70;2.53;;;17.90;67.40;;;;;;5051199;28;20120;-48
2022/04/11 08:50:52;;;;;;;14.52;4.18;;;18.40;66.80;;;;;;5052441;28;20057;-49
2022/04/11 08:53:21;;;;;;;2.10;1.90;;;18.70;65.60;;;;;;5051444;28;20028;-46
2022/04/11 08:55:48;;;;;;;3.35;2.15;;;19.40;64.80;;;;;;5052902;28;20069;-48
2022/04/11 08:58:14;;;;;;;3.40;2.25;;;19.90;63.10;;;;;;5052024;28;20534;-47
2022/04/11 09:00:39;;;;;;;3.00;1.70;;;20.50;61.50;;;;;;5052387;28;20100;-49
2022/04/11 09:03:06;;;;;;;3.88;2.58;;;20.60;60.50;;;;;;5052811;28;20017;-46
2022/04/11 09:05:32;;;;;;;3.42;2.30;;;21.10;59.40;;;;;;5060446;28;20201;-46
2022/04/11 09:07:59;;;;;;;3.78;2.15;;;21.10;58.10;;;;;;5071500;28;20029;-48
2022/04/11 09:10:30;;;;;;;7.15;2.20;;;21.10;57.60;;;;;;5050418;28;20030;-46
2022/04/11 09:13:00;;;;;;;4.18;2.17;;;21.00;56.10;;;;;;5050651;28;20036;-46
2022/04/11 09:15:27;;;;;;;4.07;2.72;;;19.40;58.20;;;;;;5051870;28;20075;-46
2022/04/11 09:17:54;;;;;;;6.13;2.90;;;17.80;60.20;;;;;;5050489;28;20439;-45
2022/04/11 09:20:24;;;;;;;2.70;2.15;;;16.70;62.80;;;;;;5050077;28;20079;-45
2022/04/11 09:22:49;;;;;;;5.47;2.53;;;16.40;64.90;;;;;;5051313;28;20048;-45
2022/04/11 09:25:20;;;;;;;4.05;2.67;;;16.80;64.30;;;;;;5051292;28;20485;-44
2022/04/11 09:27:46;;;;;;;10.75;2.58;;;17.30;63.30;;;;;;5050600;28;20116;-49
2022/04/11 09:30:32;;;;;;;6.57;3.20;;;17.90;63.40;;;;;;5051477;28;20025;-49
2022/04/11 09:32:58;;;;;;;4.45;2.58;;;18.30;61.40;;;;;;5051583;28;20516;-50
2022/04/11 09:35:32;;;;;;;3.72;3.05;;;18.10;60.60;;;;;;5054196;28;20056;-45
2022/04/11 09:38:14;;;;;;;5.80;2.78;;;17.90;61.10;;;;;;5054577;28;20078;-46
2022/04/11 09:40:41;;;;;;;6.05;2.92;;;17.80;61.40;;;;;;5055193;28;20023;-45
2022/04/11 09:43:07;;;;;;;6.90;3.40;;;17.70;61.40;;;;;;5054734;28;20044;-51
2022/04/11 09:45:38;;;;;;;12.80;3.10;;;17.30;61.90;;;;;;5036619;28;20037;-47
2022/04/11 09:48:04;;;;;;;6.10;2.80;;;17.50;62.90;;;;;;5054458;28;20569;-48
2022/04/11 09:50:31;;;;;;;8.93;3.65;;;17.40;61.70;;;;;;5054586;28;20099;-45
2022/04/11 09:53:19;;;;;;;4.15;2.72;;;17.30;61.30;;;;;;5054390;28;20438;-50
2022/04/11 09:55:48;;;;;;;3.63;2.80;;;17.50;62.80;;;;;;5054647;28;20063;-49
2022/04/11 09:58:14;;;;;;;3.75;2.35;;;17.60;61.50;;;;;;5054057;28;20108;-48
2022/04/11 10:00:44;;;;;;;10.60;6.95;;;17.50;63.80;;;;;;5054059;28;20092;-46
2022/04/11 10:03:09;;;;;;;26.38;19.08;;;17.60;62.30;;;;;;5054103;28;20025;-45
2022/04/11 10:05:37;;;;;;;19.17;9.85;;;17.70;61.70;;;;;;5053789;28;20033;-49
2022/04/11 10:08:05;;;;;;;4.47;3.05;;;17.60;62.10;;;;;;5053684;28;20021;-47
2022/04/11 10:10:34;;;;;;;3.50;2.35;;;17.50;60.60;;;;;;5054348;28;20028;-45
2022/04/11 10:13:01;;;;;;;5.18;3.17;;;17.30;62.40;;;;;;5054192;28;20029;-47
2022/04/11 10:15:27;;;;;;;5.25;2.90;;;17.30;61.80;;;;;;5054193;28;20057;-46
2022/04/11 10:17:54;;;;;;;6.65;3.53;;;17.30;61.60;;;;;;5053872;28;20043;-47
2022/04/11 10:20:33;;;;;;;4.95;3.17;;;17.10;62.30;;;;;;5054048;28;20021;-50
2022/04/11 10:23:34;;;;;;;3.63;2.53;;;17.10;63.60;;;;;;5053312;28;20036;-51
2022/04/11 10:26:03;;;;;;;3.45;2.22;;;16.70;62.90;;;;;;5048222;28;20029;-51
2022/04/11 10:28:30;;;;;;;6.00;2.67;;;16.50;62.40;;;;;;5053847;28;20048;-46
2022/04/11 10:31:10;;;;;;;3.42;2.30;;;16.40;62.20;;;;;;5053846;28;20100;-47
2022/04/11 10:33:51;;;;;;;5.57;2.40;;;16.10;63.10;;;;;;5052940;28;20504;-48
2022/04/11 10:36:36;;;;;;;2.13;1.80;;;15.90;62.50;;;;;;5053704;28;20021;-50
2022/04/11 10:39:21;;;;;;;4.05;2.10;;;15.90;62.90;;;;;;5053155;28;20021;-46
2022/04/11 10:41:56;;;;;;;6.27;2.30;;;15.90;64.80;;;;;;5053336;28;20025;-49
2022/04/11 10:44:42;;;;;;;3.63;2.20;;;15.70;63.90;;;;;;5053085;28;20021;-46
2022/04/11 10:47:07;;;;;;;7.25;2.42;;;15.70;63.30;;;;;;5052410;28;20104;-48
2022/04/11 10:49:53;;;;;;;4.85;2.30;;;15.50;63.60;;;;;;5053217;28;20548;-50
2022/04/11 10:52:33;;;;;;;6.78;2.05;;;15.60;64.10;;;;;;5053005;28;20055;-45
2022/04/11 10:55:06;;;;;;;4.45;2.42;;;15.70;63.90;;;;;;5053064;28;20037;-46
2022/04/11 10:57:35;;;;;;;3.00;1.85;;;15.90;65.20;;;;;;5053067;28;20021;-48
2022/04/11 11:00:13;;;;;;;3.67;1.90;;;16.00;64.20;;;;;;5052891;28;20104;-46
2022/04/11 11:05:38;;;;;;;2.63;1.95;;;15.90;64.80;;;;;;5053028;28;20048;-49
2022/04/11 11:08:07;;;;;;;2.45;2.00;;;15.70;62.50;;;;;;5052723;28;20028;-48
2022/04/11 11:10:53;;;;;;;2.80;2.17;;;15.60;62.90;;;;;;5052806;28;20025;-47
2022/04/11 11:13:30;;;;;;;1.88;1.77;;;15.50;62.10;;;;;;5052603;28;20494;-47
2022/04/11 11:16:00;;;;;;;4.97;2.58;;;15.30;63.40;;;;;;5052649;28;20025;-46
2022/04/11 11:18:27;;;;;;;4.25;2.28;;;15.20;63.90;;;;;;5052600;28;20060;-49
2022/04/11 11:20:57;;;;;;;3.50;2.15;;;15.40;64.60;;;;;;5052506;28;20433;-46
2022/04/11 11:23:25;;;;;;;4.40;2.15;;;15.40;63.40;;;;;;5052280;28;20035;-46
2022/04/11 11:25:53;;;;;;;2.78;1.80;;;15.30;63.60;;;;;;5052298;28;20098;-45
2022/04/11 11:28:19;;;;;;;3.30;2.10;;;15.10;63.40;;;;;;5052110;28;20492;-47
2022/04/11 11:30:44;;;;;;;3.63;2.90;;;14.90;63.70;;;;;;5052236;28;20025;-50
2022/04/11 11:33:14;;;;;;;3.25;2.00;;;14.90;63.80;;;;;;5052118;28;20017;-47
2022/04/11 11:35:48;;;;;;;4.22;3.17;;;14.70;64.20;;;;;;5052060;28;20107;-50
2022/04/11 11:38:14;;;;;;;7.33;2.60;;;14.60;64.90;;;;;;5051910;28;20426;-46
2022/04/11 11:40:51;;;;;;;2.90;1.80;;;14.70;66.30;;;;;;5051978;28;20256;-47
2022/04/11 11:43:16;;;;;;;3.92;2.08;;;14.70;63.90;;;;;;5052094;28;20051;-46
2022/04/11 11:45:42;;;;;;;3.85;1.67;;;14.80;64.20;;;;;;5052067;28;20033;-45
2022/04/11 11:48:26;;;;;;;1.85;1.60;;;14.80;64.90;;;;;;5051377;28;20029;-48
2022/04/11 11:50:57;;;;;;;2.55;2.05;;;14.80;62.90;;;;;;5052326;28;20538;-49
2022/04/11 11:53:24;;;;;;;2.38;1.85;;;14.70;63.20;;;;;;5052234;28;20029;-46
2022/04/11 11:55:59;;;;;;;3.90;1.60;;;14.80;65.00;;;;;;5051752;28;20028;-47
2022/04/11 11:58:38;;;;;;;2.65;1.77;;;14.90;65.30;;;;;;5051332;28;20075;-47
2022/04/11 12:01:13;;;;;;;4.60;2.47;;;15.00;64.80;;;;;;5051991;28;20404;-46
2022/04/11 12:06:31;;;;;;;2.08;1.70;;;14.90;64.00;;;;;;5052140;28;20067;-45
2022/04/11 12:08:59;;;;;;;2.60;1.58;;;15.00;65.20;;;;;;5051342;28;20045;-47
2022/04/11 12:11:26;;;;;;;3.50;1.50;;;15.10;66.40;;;;;;5051592;28;20070;-47
2022/04/11 12:14:21;;;;;;;4.57;1.58;;;15.20;66.20;;;;;;5045455;28;20057;-45
2022/04/11 12:16:58;;;;;;;4.75;2.38;;;15.20;64.10;;;;;;5027601;28;20056;-48
2022/04/11 12:19:37;;;;;;;2.53;1.90;;;15.00;64.60;;;;;;5051686;28;20439;-46
2022/04/11 12:22:14;;;;;;;5.45;2.00;;;14.80;65.50;;;;;;5051136;28;20403;-45
2022/04/11 12:24:40;;;;;;;4.50;1.70;;;14.80;65.20;;;;;;5050028;28;20021;-47
2022/04/11 12:27:12;;;;;;;4.07;1.98;;;14.80;64.90;;;;;;5051050;28;20419;-45
2022/04/11 12:29:42;;;;;;;2.92;2.40;;;14.80;64.10;;;;;;5051146;28;20025;-44
2022/04/11 12:32:15;;;;;;;2.13;2.00;;;14.90;64.50;;;;;;5050999;28;20072;-45
2022/04/11 12:34:43;;;;;;;6.10;2.75;;;15.00;65.10;;;;;;5050574;28;20399;-48
2022/04/11 12:37:11;;;;;;;2.28;1.77;;;14.90;63.80;;;;;;5049996;28;20107;-45
2022/04/11 12:39:56;;;;;;;6.00;2.97;;;14.70;63.40;;;;;;5051297;28;20029;-45
2022/04/11 12:42:23;;;;;;;;;;;14.70;64.40;;;;;;5044845;28;20021;-46
2022/04/11 12:44:59;;;;;;;5.47;3.25;;;14.80;64.10;;;;;;5051139;28;19917;-47
2022/04/11 12:47:25;;;;;;;2.85;1.92;;;14.80;64.20;;;;;;5051291;28;20204;-44
2022/04/11 12:49:53;;;;;;;5.50;2.72;;;14.80;64.60;;;;;;5051807;28;20100;-47
2022/04/11 12:52:21;;;;;;;10.30;2.70;;;14.80;64.60;;;;;;5050967;28;20035;-44
2022/04/11 12:54:59;;;;;;;3.17;1.73;;;15.00;65.60;;;;;;5051035;28;20572;-43
2022/04/11 12:57:27;;;;;;;5.07;2.03;;;15.10;63.50;;;;;;5050260;28;20025;-45
2022/04/11 12:59:53;;;;;;;1.65;1.30;;;15.20;62.30;;;;;;5051212;28;20392;-45
2022/04/11 13:02:26;;;;;;;2.17;1.83;;;15.20;62.90;;;;;;5050855;28;20052;-50